createdAt,value
2023-03-28T04:22:54.257Z,38.75
2023-03-28T04:36:17.548Z,31.38
2023-03-28T04:37:45.870Z,32.20
2023-03-28T04:39:47.907Z,29.70
2023-03-28T04:44:56.099Z,28.45
2023-03-28T04:46:17.218Z,23.58
2023-03-28T04:47:34.935Z,22.38
2023-03-28T04:50:16.664Z,22.45
2023-03-28T04:51:31.861Z,22.58
2023-03-28T04:54:29.964Z,21.48
2023-03-28T04:55:56.755Z,20.08
2023-03-28T04:59:01.483Z,17.48
2023-03-28T05:00:54.007Z,16.88
2023-03-28T05:02:30.946Z,19.45
2023-03-28T05:03:41.402Z,19.58
2023-03-28T05:04:58.688Z,19.55
2023-03-28T05:06:01.781Z,17.40
2023-03-28T05:35:58.503Z,15.13
2023-03-28T05:37:01.628Z,16.20
2023-03-28T05:38:18.608Z,17.05
2023-03-28T09:56:31.183Z,6.65
2023-03-28T09:58:39.906Z,7.68
2023-03-28T10:00:13.846Z,7.85
2023-03-28T10:02:15.139Z,8.52
2023-03-28T10:06:30.477Z,8.68
2023-03-28T10:20:26.065Z,9.20
2023-03-28T10:26:14.690Z,10.45
2023-03-28T10:28:00.790Z,11.50
2023-03-28T10:29:40.832Z,11.63
2023-03-28T10:31:10.277Z,12.95
2023-03-28T10:32:36.965Z,9.38
2023-03-28T10:34:13.143Z,7.20
2023-03-28T10:35:37.449Z,7.28
2023-03-28T10:36:57.453Z,6.85
2023-03-28T10:38:20.841Z,5.93
2023-03-28T10:39:58.197Z,9.73
2023-03-28T10:41:31.281Z,7.72
2023-03-28T10:43:17.973Z,6.70
2023-03-28T10:46:40.610Z,6.78
2023-03-28T10:48:36.573Z,9.82
2023-03-28T10:50:00.790Z,9.75
2023-03-28T10:51:28.819Z,8.80
2023-03-28T10:52:54.934Z,12.73
2023-03-28T10:54:49.295Z,10.52
2023-03-28T10:56:18.725Z,10.60
2023-03-28T10:57:52.288Z,8.23
2023-03-28T11:19:50.312Z,10.13
2023-03-28T11:28:32.592Z,10.70
2023-03-28T11:31:02.555Z,12.30
2023-03-28T11:32:58.274Z,10.30
2023-03-28T11:35:09.395Z,11.35
2023-03-28T11:43:28.194Z,12.07
2023-03-28T11:49:44.180Z,12.27
2023-03-28T11:51:52.756Z,13.82
2023-03-28T11:53:38.191Z,11.43
2023-03-28T11:55:03.035Z,10.23
2023-03-28T11:56:43.734Z,16.40
2023-03-28T11:58:37.957Z,13.75
2023-03-28T12:00:05.954Z,16.17
2023-03-28T12:01:32.965Z,15.10
2023-03-28T12:03:03.245Z,16.73
2023-03-28T12:04:29.396Z,13.13
2023-03-28T12:06:02.578Z,14.95
2023-03-28T12:07:32.830Z,14.48
2023-03-28T12:09:11.180Z,13.93
2023-03-28T12:10:51.253Z,14.85
2023-03-28T12:12:29.803Z,16.50
2023-03-28T12:13:55.454Z,12.60
2023-03-28T12:16:42.953Z,15.75
2023-03-28T12:18:49.031Z,16.30
2023-03-28T12:20:16.111Z,18.30
2023-03-28T12:21:34.020Z,16.77
2023-03-28T12:22:58.071Z,15.90
2023-03-28T12:24:33.591Z,19.55
2023-03-28T12:26:23.853Z,19.08
2023-03-28T12:27:46.399Z,19.98
2023-03-28T12:29:04.980Z,15.68
2023-03-28T12:30:23.864Z,16.95
2023-03-28T12:32:16.650Z,18.90
2023-03-28T12:33:41.232Z,16.95
2023-03-28T12:35:22.857Z,17.77
2023-03-28T12:38:46.482Z,22.40
2023-03-28T12:40:21.547Z,17.70
2023-03-28T12:41:40.151Z,24.40
2023-03-28T12:42:55.349Z,17.83
2023-03-28T12:44:46.587Z,16.83
2023-03-28T12:47:42.460Z,18.88
2023-03-28T12:49:24.179Z,21.10
2023-03-28T12:51:01.401Z,19.05
2023-03-28T12:52:17.034Z,19.75
2023-03-28T12:53:30.542Z,17.23
2023-03-28T12:55:03.836Z,16.52
2023-03-28T12:56:16.400Z,18.23
2023-03-28T12:57:46.103Z,16.17
2023-03-28T12:59:50.155Z,15.82
2023-03-28T13:01:30.601Z,18.95
2023-03-28T13:03:11.130Z,14.90
2023-03-28T13:04:44.348Z,13.38
2023-03-28T13:06:22.749Z,18.73
2023-03-28T13:07:58.887Z,20.77
2023-03-28T13:09:39.278Z,17.58
2023-03-28T13:11:08.230Z,15.23
2023-03-28T13:13:46.560Z,15.07
2023-03-28T13:15:20.021Z,11.93
2023-03-28T13:16:53.128Z,14.95
2023-03-28T13:18:24.197Z,16.08
2023-03-28T13:19:53.902Z,12.65
2023-03-28T13:21:09.838Z,14.48
2023-03-28T13:22:56.560Z,14.63
2023-03-28T13:24:01.672Z,14.07
2023-03-28T13:25:50.285Z,11.60
2023-03-28T13:28:06.217Z,14.98
2023-03-28T13:31:34.342Z,9.98
2023-03-28T13:33:42.222Z,15.52
2023-03-28T13:34:57.128Z,14.68
2023-03-28T13:36:31.454Z,15.25
2023-03-28T13:38:18.636Z,9.68
2023-03-28T13:39:30.692Z,13.73
2023-03-28T13:41:10.916Z,12.40
2023-03-28T13:42:46.436Z,11.63
2023-03-28T13:43:56.955Z,14.00
2023-03-28T13:45:16.988Z,13.55
2023-03-28T13:46:34.073Z,12.50
2023-03-28T13:48:06.234Z,14.68
2023-03-28T13:49:45.334Z,13.88
2023-03-28T13:50:55.332Z,11.90
2023-03-28T13:52:06.641Z,12.57
2023-03-28T13:53:11.518Z,12.32
2023-03-28T13:54:20.416Z,14.02
2023-03-28T13:55:34.730Z,14.90
2023-03-28T13:56:44.536Z,13.95
2023-03-28T13:57:53.351Z,15.45
2023-03-28T13:59:03.057Z,15.68
2023-03-28T14:00:23.637Z,17.30
2023-03-28T14:03:19.458Z,10.63
2023-03-28T14:04:57.153Z,16.02
2023-03-28T14:06:24.669Z,12.90
2023-03-28T14:07:31.564Z,11.52
2023-03-28T14:08:35.943Z,12.65
2023-03-28T14:09:40.853Z,10.05
2023-03-28T14:10:50.294Z,9.38
2023-03-28T14:12:16.611Z,11.82
2023-03-28T14:13:43.003Z,11.38
2023-03-28T14:15:06.834Z,11.80
2023-03-28T14:25:06.316Z,12.45
2023-03-28T14:35:00.635Z,14.80
2023-03-28T14:42:48.125Z,13.40
2023-03-28T14:44:18.374Z,12.00
2023-03-28T14:45:43.034Z,11.48
2023-03-28T14:49:33.817Z,12.52
2023-03-28T14:54:37.240Z,9.20
2023-03-28T15:04:44.736Z,14.18
2023-03-28T15:13:48.601Z,15.82
2023-03-28T15:17:21.263Z,13.43
2023-03-28T15:18:44.439Z,14.70
2023-03-28T15:21:48.852Z,14.27
2023-03-28T15:23:54.705Z,11.30
2023-03-28T15:30:20.485Z,12.15
2023-03-28T15:32:37.945Z,14.25
2023-03-28T15:37:21.894Z,14.45
2023-03-28T15:47:22.890Z,17.70
2023-03-28T15:48:34.616Z,12.25
2023-03-28T15:50:19.711Z,16.92
2023-03-28T15:53:59.415Z,14.07
2023-03-28T15:57:43.483Z,15.63
2023-03-28T15:59:06.243Z,14.40
2023-03-28T16:01:23.736Z,15.85
2023-03-28T16:02:52.302Z,15.65
2023-03-28T16:04:32.109Z,19.38
2023-03-28T16:08:56.729Z,13.20
2023-03-28T16:21:48.774Z,19.15
2023-03-28T16:23:56.372Z,19.30
2023-03-28T16:27:40.258Z,16.75
2023-03-28T16:41:44.984Z,19.33
2023-03-28T16:47:46.806Z,16.23
2023-03-28T16:52:57.202Z,21.52
2023-03-28T16:55:19.216Z,21.10
2023-03-28T16:59:32.854Z,20.02
2023-03-28T17:00:51.601Z,21.17
2023-03-28T17:01:59.502Z,19.45
2023-03-28T17:03:05.707Z,21.38
2023-03-28T17:04:22.304Z,16.95
2023-03-28T17:05:33.822Z,19.30
2023-03-28T17:06:40.170Z,14.27
2023-03-28T17:08:20.989Z,19.60
2023-03-28T17:09:43.116Z,18.20
2023-03-28T17:12:51.328Z,20.55
2023-03-28T17:16:36.419Z,20.83
2023-03-28T17:19:02.324Z,20.70
2023-03-28T17:22:08.308Z,19.13
